Pagrindinis puslapis
METAR-TAF:

METAR-TAF

Oro uostai :

Volisas, Prancūzija

platuma: 13-14S, ilguma: 176-10W, Aukštis: 23 m

Dabartinis oras

Ataskaita buvo paskelbta 30 minutes, ne 16:30 UTC
Vėjas 6 kt iš Pietų/Pietryčių, svyruoja nuo Rytų/Pietryčių ir Pietų/Pietvakarių
Temperatūra 25°C
Drėgmė 79%
Slėgis 1012 hPa
Matomumas 10 km arba daugiau

METAR: NLWW 031630Z AUTO 16006KT 120V200 9999 SCT027/// SCT032/// OVC048/// 25/21 Q1012 NOSIG

Laikas: 05:00 (17:00 UTC)

Prognozė

Ataskaita buvo paskelbta 6 valandos ir 0 minutes, ne 11:00 UTC
Prognozė galioja nuo 03 metu 12 UTC su 04 metu 12 UTC
Vėjas 8 kt iš Pietų/Pietryčių
Matomumas 10 km arba daugiau
Išsisklaidę debesys ne aukštis 2500 ft

TAF: NLWW 031100Z 0312/0412 15008KT 9999 SCT025

Orai ataskaitas ir orų prognozės (METAR, TAF).

turimą stotys yra geltonos ir raudonos taškus žemėlapyje.

Perkelti pele per norėdami pamatyti stoties vardą.

Tada spustelėkite, norėdami matyti oro stebėjimo ir prognozės.

Norėdami pakeisti žemėlapį: spustelėkite ant žalios mygtukų su juodo kryžiaus žemyn,; žalią mygtuką su brūkšneliu, jei norite nutolinti; arba žalių rodyklių gretimoms žemėlapius.


METAR-TAF: